sensor_id;sensor_type;location;lat;lon;timestamp;P1;durP1;ratioP1;P2;durP2;ratioP2
60665;SDS011;59128;44.642;21.188;2023-04-01T00:00:29;20.73;;;12.20;;
60665;SDS011;59128;44.642;21.188;2023-04-01T00:02:55;20.17;;;12.73;;
60665;SDS011;59128;44.642;21.188;2023-04-01T00:05:21;16.73;;;11.18;;
60665;SDS011;59128;44.642;21.188;2023-04-01T00:07:49;19.90;;;12.02;;
60665;SDS011;59128;44.642;21.188;2023-04-01T00:10:16;17.95;;;10.90;;
60665;SDS011;59128;44.642;21.188;2023-04-01T00:12:42;17.80;;;9.80;;
60665;SDS011;59128;44.642;21.188;2023-04-01T00:15:09;15.15;;;10.45;;
60665;SDS011;59128;44.642;21.188;2023-04-01T00:17:36;18.45;;;11.13;;
60665;SDS011;59128;44.642;21.188;2023-04-01T00:20:02;19.50;;;10.65;;
60665;SDS011;59128;44.642;21.188;2023-04-01T00:22:28;16.95;;;10.30;;
60665;SDS011;59128;44.642;21.188;2023-04-01T00:24:54;18.58;;;11.13;;
60665;SDS011;59128;44.642;21.188;2023-04-01T00:27:20;45.60;;;23.05;;
60665;SDS011;59128;44.642;21.188;2023-04-01T00:29:47;67.13;;;32.22;;
60665;SDS011;59128;44.642;21.188;2023-04-01T00:32:13;38.15;;;21.15;;
60665;SDS011;59128;44.642;21.188;2023-04-01T00:34:40;29.00;;;16.48;;
60665;SDS011;59128;44.642;21.188;2023-04-01T00:37:06;27.15;;;15.50;;
60665;SDS011;59128;44.642;21.188;2023-04-01T00:39:33;27.13;;;15.60;;
60665;SDS011;59128;44.642;21.188;2023-04-01T00:41:59;22.60;;;13.10;;
60665;SDS011;59128;44.642;21.188;2023-04-01T00:44:29;23.80;;;14.07;;
60665;SDS011;59128;44.642;21.188;2023-04-01T00:46:57;24.85;;;14.32;;
60665;SDS011;59128;44.642;21.188;2023-04-01T00:49:25;19.77;;;12.40;;
60665;SDS011;59128;44.642;21.188;2023-04-01T00:51:53;19.90;;;12.90;;
60665;SDS011;59128;44.642;21.188;2023-04-01T00:54:20;19.88;;;11.23;;
60665;SDS011;59128;44.642;21.188;2023-04-01T00:56:57;14.63;;;9.70;;
60665;SDS011;59128;44.642;21.188;2023-04-01T00:59:26;12.40;;;9.07;;
60665;SDS011;59128;44.642;21.188;2023-04-01T01:01:53;13.77;;;8.80;;
60665;SDS011;59128;44.642;21.188;2023-04-01T01:16:58;9.48;;;6.88;;
60665;SDS011;59128;44.642;21.188;2023-04-01T01:25:30;9.68;;;6.00;;
60665;SDS011;59128;44.642;21.188;2023-04-01T01:27:34;11.40;;;5.93;;
60665;SDS011;59128;44.642;21.188;2023-04-01T01:35:21;8.85;;;4.72;;
60665;SDS011;59128;44.642;21.188;2023-04-01T01:37:49;15.35;;;9.52;;
60665;SDS011;59128;44.642;21.188;2023-04-01T01:40:17;17.80;;;11.68;;
60665;SDS011;59128;44.642;21.188;2023-04-01T01:42:45;13.43;;;7.43;;
60665;SDS011;59128;44.642;21.188;2023-04-01T01:45:12;30.30;;;19.27;;
60665;SDS011;59128;44.642;21.188;2023-04-01T01:47:42;12.90;;;8.10;;
60665;SDS011;59128;44.642;21.188;2023-04-01T01:50:08;10.25;;;5.80;;
60665;SDS011;59128;44.642;21.188;2023-04-01T01:52:35;10.30;;;5.82;;
60665;SDS011;59128;44.642;21.188;2023-04-01T01:55:01;10.35;;;4.60;;
60665;SDS011;59128;44.642;21.188;2023-04-01T01:57:31;9.85;;;5.28;;
60665;SDS011;59128;44.642;21.188;2023-04-01T02:00:07;25.85;;;15.98;;
60665;SDS011;59128;44.642;21.188;2023-04-01T02:02:45;18.88;;;12.38;;
60665;SDS011;59128;44.642;21.188;2023-04-01T02:05:14;16.43;;;10.13;;
60665;SDS011;59128;44.642;21.188;2023-04-01T02:07:41;16.50;;;9.85;;
60665;SDS011;59128;44.642;21.188;2023-04-01T02:10:09;13.60;;;9.05;;
60665;SDS011;59128;44.642;21.188;2023-04-01T02:12:35;10.13;;;6.90;;
60665;SDS011;59128;44.642;21.188;2023-04-01T02:15:03;10.27;;;5.93;;
60665;SDS011;59128;44.642;21.188;2023-04-01T02:17:32;9.13;;;5.07;;
60665;SDS011;59128;44.642;21.188;2023-04-01T02:20:00;7.60;;;4.72;;
60665;SDS011;59128;44.642;21.188;2023-04-01T02:22:29;7.97;;;5.00;;
60665;SDS011;59128;44.642;21.188;2023-04-01T02:24:58;7.10;;;4.55;;
60665;SDS011;59128;44.642;21.188;2023-04-01T02:27:25;8.05;;;4.75;;
60665;SDS011;59128;44.642;21.188;2023-04-01T02:29:51;25.70;;;16.55;;
60665;SDS011;59128;44.642;21.188;2023-04-01T02:32:18;15.90;;;10.32;;
60665;SDS011;59128;44.642;21.188;2023-04-01T02:34:45;14.18;;;9.27;;
60665;SDS011;59128;44.642;21.188;2023-04-01T02:37:11;8.52;;;5.63;;
60665;SDS011;59128;44.642;21.188;2023-04-01T02:39:38;8.73;;;4.90;;
60665;SDS011;59128;44.642;21.188;2023-04-01T02:42:04;10.73;;;4.80;;
60665;SDS011;59128;44.642;21.188;2023-04-01T02:44:30;7.30;;;4.43;;
60665;SDS011;59128;44.642;21.188;2023-04-01T02:49:32;9.93;;;5.70;;
60665;SDS011;59128;44.642;21.188;2023-04-01T02:51:58;21.13;;;13.63;;
60665;SDS011;59128;44.642;21.188;2023-04-01T02:54:24;17.92;;;11.50;;
60665;SDS011;59128;44.642;21.188;2023-04-01T02:56:50;15.45;;;9.40;;
60665;SDS011;59128;44.642;21.188;2023-04-01T02:59:16;11.80;;;5.97;;
60665;SDS011;59128;44.642;21.188;2023-04-01T03:01:42;10.68;;;5.18;;
60665;SDS011;59128;44.642;21.188;2023-04-01T03:04:08;10.00;;;5.25;;
60665;SDS011;59128;44.642;21.188;2023-04-01T03:06:35;9.02;;;4.32;;
60665;SDS011;59128;44.642;21.188;2023-04-01T03:09:00;7.65;;;4.13;;
60665;SDS011;59128;44.642;21.188;2023-04-01T03:11:27;9.00;;;4.90;;
60665;SDS011;59128;44.642;21.188;2023-04-01T03:13:53;7.22;;;4.72;;
60665;SDS011;59128;44.642;21.188;2023-04-01T03:16:19;8.98;;;4.47;;
60665;SDS011;59128;44.642;21.188;2023-04-01T03:18:45;8.18;;;4.75;;
60665;SDS011;59128;44.642;21.188;2023-04-01T03:21:14;7.88;;;4.82;;
60665;SDS011;59128;44.642;21.188;2023-04-01T03:23:40;7.40;;;4.60;;
60665;SDS011;59128;44.642;21.188;2023-04-01T03:26:06;6.93;;;4.22;;
60665;SDS011;59128;44.642;21.188;2023-04-01T03:28:33;8.18;;;4.90;;
60665;SDS011;59128;44.642;21.188;2023-04-01T03:30:58;8.48;;;5.22;;
60665;SDS011;59128;44.642;21.188;2023-04-01T03:33:24;8.45;;;5.20;;
60665;SDS011;59128;44.642;21.188;2023-04-01T03:35:50;9.48;;;5.03;;
60665;SDS011;59128;44.642;21.188;2023-04-01T03:38:17;6.55;;;4.72;;
60665;SDS011;59128;44.642;21.188;2023-04-01T03:40:43;7.93;;;4.88;;
60665;SDS011;59128;44.642;21.188;2023-04-01T03:43:10;5.68;;;4.47;;
60665;SDS011;59128;44.642;21.188;2023-04-01T03:45:36;11.43;;;5.30;;
60665;SDS011;59128;44.642;21.188;2023-04-01T03:48:08;8.50;;;5.75;;
60665;SDS011;59128;44.642;21.188;2023-04-01T03:50:34;19.70;;;13.75;;
60665;SDS011;59128;44.642;21.188;2023-04-01T03:53:00;19.95;;;13.65;;
60665;SDS011;59128;44.642;21.188;2023-04-01T03:55:26;22.05;;;14.65;;
60665;SDS011;59128;44.642;21.188;2023-04-01T03:57:52;24.55;;;17.05;;
60665;SDS011;59128;44.642;21.188;2023-04-01T04:00:18;22.50;;;15.32;;
60665;SDS011;59128;44.642;21.188;2023-04-01T04:02:44;18.38;;;12.07;;
60665;SDS011;59128;44.642;21.188;2023-04-01T04:05:10;19.00;;;12.38;;
60665;SDS011;59128;44.642;21.188;2023-04-01T04:07:38;17.67;;;13.07;;
60665;SDS011;59128;44.642;21.188;2023-04-01T04:10:04;15.65;;;11.57;;
60665;SDS011;59128;44.642;21.188;2023-04-01T04:12:30;12.75;;;9.20;;
60665;SDS011;59128;44.642;21.188;2023-04-01T04:14:56;15.90;;;8.88;;
60665;SDS011;59128;44.642;21.188;2023-04-01T04:17:22;11.35;;;7.70;;
60665;SDS011;59128;44.642;21.188;2023-04-01T04:19:48;13.43;;;7.38;;
60665;SDS011;59128;44.642;21.188;2023-04-01T04:22:14;14.70;;;7.93;;
60665;SDS011;59128;44.642;21.188;2023-04-01T04:24:40;11.52;;;7.55;;
60665;SDS011;59128;44.642;21.188;2023-04-01T04:27:06;13.63;;;8.18;;
60665;SDS011;59128;44.642;21.188;2023-04-01T04:29:32;15.68;;;8.45;;
60665;SDS011;59128;44.642;21.188;2023-04-01T04:31:58;14.02;;;10.52;;
60665;SDS011;59128;44.642;21.188;2023-04-01T04:34:25;13.57;;;9.32;;
60665;SDS011;59128;44.642;21.188;2023-04-01T04:36:51;17.17;;;9.82;;
60665;SDS011;59128;44.642;21.188;2023-04-01T04:39:17;12.50;;;8.48;;
60665;SDS011;59128;44.642;21.188;2023-04-01T04:41:43;13.27;;;8.30;;
60665;SDS011;59128;44.642;21.188;2023-04-01T04:44:09;11.85;;;7.22;;
60665;SDS011;59128;44.642;21.188;2023-04-01T04:46:35;11.77;;;7.10;;
60665;SDS011;59128;44.642;21.188;2023-04-01T04:49:04;11.60;;;6.88;;
60665;SDS011;59128;44.642;21.188;2023-04-01T04:51:30;8.07;;;7.28;;
60665;SDS011;59128;44.642;21.188;2023-04-01T04:53:59;11.02;;;7.10;;
60665;SDS011;59128;44.642;21.188;2023-04-01T04:56:25;9.90;;;6.03;;
60665;SDS011;59128;44.642;21.188;2023-04-01T04:58:51;9.50;;;6.68;;
60665;SDS011;59128;44.642;21.188;2023-04-01T05:01:17;34.67;;;19.33;;
60665;SDS011;59128;44.642;21.188;2023-04-01T05:03:44;31.10;;;19.38;;
60665;SDS011;59128;44.642;21.188;2023-04-01T05:06:11;39.38;;;27.40;;
60665;SDS011;59128;44.642;21.188;2023-04-01T05:08:37;31.27;;;20.80;;
60665;SDS011;59128;44.642;21.188;2023-04-01T05:11:06;22.55;;;15.77;;
60665;SDS011;59128;44.642;21.188;2023-04-01T05:13:34;21.35;;;13.68;;
60665;SDS011;59128;44.642;21.188;2023-04-01T05:16:00;20.83;;;14.60;;
60665;SDS011;59128;44.642;21.188;2023-04-01T05:18:26;23.40;;;14.30;;
60665;SDS011;59128;44.642;21.188;2023-04-01T05:20:53;19.70;;;13.25;;
60665;SDS011;59128;44.642;21.188;2023-04-01T05:23:20;27.13;;;18.33;;
60665;SDS011;59128;44.642;21.188;2023-04-01T05:25:47;34.75;;;21.63;;
60665;SDS011;59128;44.642;21.188;2023-04-01T05:28:14;46.88;;;32.97;;
60665;SDS011;59128;44.642;21.188;2023-04-01T05:30:40;34.38;;;20.08;;
60665;SDS011;59128;44.642;21.188;2023-04-01T05:33:07;29.42;;;17.33;;
60665;SDS011;59128;44.642;21.188;2023-04-01T05:35:33;21.30;;;11.75;;
60665;SDS011;59128;44.642;21.188;2023-04-01T05:38:00;24.58;;;13.63;;
60665;SDS011;59128;44.642;21.188;2023-04-01T05:40:27;17.88;;;10.45;;
60665;SDS011;59128;44.642;21.188;2023-04-01T05:42:53;25.85;;;12.15;;
60665;SDS011;59128;44.642;21.188;2023-04-01T05:45:19;17.40;;;10.55;;
60665;SDS011;59128;44.642;21.188;2023-04-01T05:47:45;16.88;;;11.35;;
60665;SDS011;59128;44.642;21.188;2023-04-01T05:50:11;12.88;;;9.75;;
60665;SDS011;59128;44.642;21.188;2023-04-01T05:52:37;13.40;;;8.30;;
60665;SDS011;59128;44.642;21.188;2023-04-01T05:55:04;13.52;;;8.60;;
60665;SDS011;59128;44.642;21.188;2023-04-01T05:57:30;11.57;;;8.27;;
60665;SDS011;59128;44.642;21.188;2023-04-01T05:59:56;12.90;;;8.43;;
60665;SDS011;59128;44.642;21.188;2023-04-01T06:02:22;13.82;;;9.10;;
60665;SDS011;59128;44.642;21.188;2023-04-01T06:04:48;14.02;;;9.55;;
60665;SDS011;59128;44.642;21.188;2023-04-01T06:07:15;11.05;;;8.07;;
60665;SDS011;59128;44.642;21.188;2023-04-01T06:09:42;12.45;;;8.55;;
60665;SDS011;59128;44.642;21.188;2023-04-01T06:14:47;12.77;;;8.53;;
60665;SDS011;59128;44.642;21.188;2023-04-01T06:25:38;12.27;;;9.00;;
60665;SDS011;59128;44.642;21.188;2023-04-01T06:38:31;18.27;;;12.52;;
60665;SDS011;59128;44.642;21.188;2023-04-01T06:46:14;22.33;;;17.80;;
60665;SDS011;59128;44.642;21.188;2023-04-01T06:51:32;26.20;;;22.17;;
60665;SDS011;59128;44.642;21.188;2023-04-01T06:54:16;30.25;;;23.60;;
60665;SDS011;59128;44.642;21.188;2023-04-01T06:56:44;25.55;;;20.10;;
60665;SDS011;59128;44.642;21.188;2023-04-01T07:01:38;15.93;;;12.67;;
60665;SDS011;59128;44.642;21.188;2023-04-01T07:07:52;17.67;;;15.43;;
60665;SDS011;59128;44.642;21.188;2023-04-01T07:09:49;23.30;;;18.83;;
60665;SDS011;59128;44.642;21.188;2023-04-01T07:14:43;19.52;;;16.88;;
60665;SDS011;59128;44.642;21.188;2023-04-01T07:17:29;26.38;;;21.13;;
60665;SDS011;59128;44.642;21.188;2023-04-01T07:20:02;34.47;;;23.30;;
60665;SDS011;59128;44.642;21.188;2023-04-01T07:22:31;85.50;;;46.42;;
60665;SDS011;59128;44.642;21.188;2023-04-01T07:25:02;49.90;;;30.35;;
60665;SDS011;59128;44.642;21.188;2023-04-01T07:27:28;19.73;;;13.10;;
60665;SDS011;59128;44.642;21.188;2023-04-01T07:29:57;17.20;;;12.23;;
60665;SDS011;59128;44.642;21.188;2023-04-01T07:45:09;13.93;;;9.45;;
60665;SDS011;59128;44.642;21.188;2023-04-01T08:03:14;14.23;;;10.80;;
60665;SDS011;59128;44.642;21.188;2023-04-01T08:13:23;21.05;;;13.48;;
60665;SDS011;59128;44.642;21.188;2023-04-01T08:18:37;14.20;;;8.30;;
60665;SDS011;59128;44.642;21.188;2023-04-01T08:21:05;12.15;;;8.13;;
60665;SDS011;59128;44.642;21.188;2023-04-01T08:23:33;13.67;;;8.40;;
60665;SDS011;59128;44.642;21.188;2023-04-01T08:26:37;13.33;;;9.30;;
60665;SDS011;59128;44.642;21.188;2023-04-01T08:28:57;13.13;;;9.05;;
60665;SDS011;59128;44.642;21.188;2023-04-01T08:34:09;13.95;;;8.75;;
60665;SDS011;59128;44.642;21.188;2023-04-01T08:36:45;13.57;;;9.15;;
60665;SDS011;59128;44.642;21.188;2023-04-01T08:39:18;13.57;;;9.45;;
60665;SDS011;59128;44.642;21.188;2023-04-01T08:44:18;15.60;;;10.93;;
60665;SDS011;59128;44.642;21.188;2023-04-01T08:46:56;16.55;;;10.57;;
60665;SDS011;59128;44.642;21.188;2023-04-01T08:54:46;17.58;;;13.48;;
60665;SDS011;59128;44.642;21.188;2023-04-01T08:57:19;15.52;;;10.30;;
60665;SDS011;59128;44.642;21.188;2023-04-01T09:10:23;24.90;;;16.48;;
60665;SDS011;59128;44.642;21.188;2023-04-01T09:12:54;23.25;;;17.70;;
60665;SDS011;59128;44.642;21.188;2023-04-01T09:42:28;44.42;;;34.53;;
60665;SDS011;59128;44.642;21.188;2023-04-01T09:45:01;72.03;;;51.20;;
60665;SDS011;59128;44.642;21.188;2023-04-01T10:00:32;20.58;;;16.30;;
60665;SDS011;59128;44.642;21.188;2023-04-01T10:16:22;22.42;;;19.00;;
60665;SDS011;59128;44.642;21.188;2023-04-01T10:19:09;22.50;;;19.20;;
60665;SDS011;59128;44.642;21.188;2023-04-01T11:19:00;14.63;;;12.67;;
60665;SDS011;59128;44.642;21.188;2023-04-01T11:24:24;12.63;;;10.32;;
60665;SDS011;59128;44.642;21.188;2023-04-01T11:32:58;10.30;;;8.05;;
60665;SDS011;59128;44.642;21.188;2023-04-01T11:56:10;22.20;;;17.15;;
60665;SDS011;59128;44.642;21.188;2023-04-01T12:01:07;7.13;;;6.18;;
60665;SDS011;59128;44.642;21.188;2023-04-01T12:13:52;10.53;;;9.13;;
60665;SDS011;59128;44.642;21.188;2023-04-01T12:21:32;9.35;;;7.63;;
60665;SDS011;59128;44.642;21.188;2023-04-01T12:31:38;26.88;;;14.55;;
60665;SDS011;59128;44.642;21.188;2023-04-01T12:44:52;2.40;;;1.80;;
60665;SDS011;59128;44.642;21.188;2023-04-01T12:55:45;4.78;;;2.60;;
60665;SDS011;59128;44.642;21.188;2023-04-01T12:58:03;3.53;;;2.60;;
60665;SDS011;59128;44.642;21.188;2023-04-01T13:00:45;4.55;;;2.80;;
60665;SDS011;59128;44.642;21.188;2023-04-01T13:03:22;3.70;;;3.00;;
60665;SDS011;59128;44.642;21.188;2023-04-01T13:10:57;2.55;;;1.98;;
60665;SDS011;59128;44.642;21.188;2023-04-01T13:15:58;3.30;;;2.10;;
60665;SDS011;59128;44.642;21.188;2023-04-01T13:18:41;4.60;;;2.60;;
60665;SDS011;59128;44.642;21.188;2023-04-01T13:29:06;3.45;;;2.10;;
60665;SDS011;59128;44.642;21.188;2023-04-01T13:34:32;2.78;;;2.03;;
60665;SDS011;59128;44.642;21.188;2023-04-01T13:57:14;2.30;;;2.10;;
60665;SDS011;59128;44.642;21.188;2023-04-01T14:07:38;4.63;;;3.08;;
60665;SDS011;59128;44.642;21.188;2023-04-01T14:12:56;3.97;;;3.20;;
60665;SDS011;59128;44.642;21.188;2023-04-01T14:15:48;5.60;;;3.55;;
60665;SDS011;59128;44.642;21.188;2023-04-01T14:20:59;7.30;;;5.90;;
60665;SDS011;59128;44.642;21.188;2023-04-01T14:36:27;4.78;;;4.00;;
60665;SDS011;59128;44.642;21.188;2023-04-01T14:38:59;4.57;;;2.80;;
60665;SDS011;59128;44.642;21.188;2023-04-01T14:51:50;3.33;;;1.63;;
60665;SDS011;59128;44.642;21.188;2023-04-01T14:54:19;2.55;;;1.80;;
60665;SDS011;59128;44.642;21.188;2023-04-01T14:56:51;3.05;;;1.90;;
60665;SDS011;59128;44.642;21.188;2023-04-01T14:59:27;3.42;;;2.00;;
60665;SDS011;59128;44.642;21.188;2023-04-01T15:04:43;2.85;;;1.73;;
60665;SDS011;59128;44.642;21.188;2023-04-01T15:07:21;3.60;;;1.80;;
60665;SDS011;59128;44.642;21.188;2023-04-01T15:10:13;3.07;;;1.73;;
60665;SDS011;59128;44.642;21.188;2023-04-01T15:12:58;2.47;;;1.95;;
60665;SDS011;59128;44.642;21.188;2023-04-01T15:16:18;2.95;;;2.08;;
60665;SDS011;59128;44.642;21.188;2023-04-01T15:18:21;4.78;;;3.10;;
60665;SDS011;59128;44.642;21.188;2023-04-01T15:21:06;3.17;;;2.67;;
60665;SDS011;59128;44.642;21.188;2023-04-01T15:26:16;3.58;;;2.45;;
60665;SDS011;59128;44.642;21.188;2023-04-01T15:31:32;3.00;;;2.17;;
60665;SDS011;59128;44.642;21.188;2023-04-01T15:39:09;2.65;;;1.90;;
60665;SDS011;59128;44.642;21.188;2023-04-01T15:41:46;3.58;;;2.10;;
60665;SDS011;59128;44.642;21.188;2023-04-01T15:47:00;4.10;;;2.05;;
60665;SDS011;59128;44.642;21.188;2023-04-01T15:49:37;2.80;;;1.90;;
60665;SDS011;59128;44.642;21.188;2023-04-01T16:16:53;4.88;;;2.78;;
60665;SDS011;59128;44.642;21.188;2023-04-01T16:19:31;3.47;;;2.80;;
60665;SDS011;59128;44.642;21.188;2023-04-01T16:22:09;6.15;;;3.38;;
60665;SDS011;59128;44.642;21.188;2023-04-01T16:27:11;9.95;;;8.10;;
60665;SDS011;59128;44.642;21.188;2023-04-01T16:29:41;11.85;;;8.52;;
60665;SDS011;59128;44.642;21.188;2023-04-01T16:35:04;9.38;;;7.80;;
60665;SDS011;59128;44.642;21.188;2023-04-01T16:37:46;8.52;;;6.40;;
60665;SDS011;59128;44.642;21.188;2023-04-01T16:43:09;10.18;;;8.20;;
60665;SDS011;59128;44.642;21.188;2023-04-01T16:45:37;10.95;;;7.50;;
60665;SDS011;59128;44.642;21.188;2023-04-01T16:48:12;16.58;;;12.43;;
60665;SDS011;59128;44.642;21.188;2023-04-01T16:50:48;16.45;;;12.93;;
60665;SDS011;59128;44.642;21.188;2023-04-01T16:53:24;15.23;;;11.88;;
60665;SDS011;59128;44.642;21.188;2023-04-01T16:58:27;30.53;;;21.13;;
60665;SDS011;59128;44.642;21.188;2023-04-01T17:01:04;37.35;;;28.45;;
60665;SDS011;59128;44.642;21.188;2023-04-01T17:03:36;54.00;;;39.58;;
60665;SDS011;59128;44.642;21.188;2023-04-01T17:11:15;48.88;;;37.13;;
60665;SDS011;59128;44.642;21.188;2023-04-01T17:26:40;58.17;;;39.45;;
60665;SDS011;59128;44.642;21.188;2023-04-01T17:31:52;41.03;;;30.75;;
60665;SDS011;59128;44.642;21.188;2023-04-01T17:34:30;49.20;;;33.90;;
60665;SDS011;59128;44.642;21.188;2023-04-01T17:37:05;49.47;;;34.58;;
60665;SDS011;59128;44.642;21.188;2023-04-01T17:42:21;49.00;;;34.72;;
60665;SDS011;59128;44.642;21.188;2023-04-01T17:47:58;53.47;;;38.75;;
60665;SDS011;59128;44.642;21.188;2023-04-01T17:50:23;46.78;;;34.65;;
60665;SDS011;59128;44.642;21.188;2023-04-01T17:58:17;39.72;;;29.65;;
60665;SDS011;59128;44.642;21.188;2023-04-01T18:01:04;43.17;;;33.10;;
60665;SDS011;59128;44.642;21.188;2023-04-01T18:16:46;58.58;;;42.22;;
60665;SDS011;59128;44.642;21.188;2023-04-01T18:19:36;40.10;;;30.73;;
60665;SDS011;59128;44.642;21.188;2023-04-01T18:24:41;39.65;;;30.48;;
60665;SDS011;59128;44.642;21.188;2023-04-01T18:29:36;54.53;;;40.47;;
60665;SDS011;59128;44.642;21.188;2023-04-01T18:37:19;51.42;;;38.30;;
60665;SDS011;59128;44.642;21.188;2023-04-01T18:39:58;47.08;;;36.65;;
60665;SDS011;59128;44.642;21.188;2023-04-01T18:42:41;43.05;;;34.03;;
60665;SDS011;59128;44.642;21.188;2023-04-01T18:45:23;48.78;;;37.50;;
60665;SDS011;59128;44.642;21.188;2023-04-01T18:50:38;57.60;;;43.67;;
60665;SDS011;59128;44.642;21.188;2023-04-01T19:01:43;57.55;;;42.90;;
60665;SDS011;59128;44.642;21.188;2023-04-01T19:11:53;62.73;;;45.20;;
60665;SDS011;59128;44.642;21.188;2023-04-01T19:16:53;56.55;;;41.97;;
60665;SDS011;59128;44.642;21.188;2023-04-01T19:21:57;45.90;;;35.55;;
60665;SDS011;59128;44.642;21.188;2023-04-01T19:34:48;45.67;;;35.28;;
60665;SDS011;59128;44.642;21.188;2023-04-01T19:37:24;46.88;;;35.72;;
60665;SDS011;59128;44.642;21.188;2023-04-01T19:39:56;43.25;;;33.63;;
60665;SDS011;59128;44.642;21.188;2023-04-01T19:42:31;46.20;;;33.72;;
60665;SDS011;59128;44.642;21.188;2023-04-01T19:50:26;33.10;;;24.92;;
60665;SDS011;59128;44.642;21.188;2023-04-01T19:52:57;37.80;;;29.50;;
60665;SDS011;59128;44.642;21.188;2023-04-01T19:55:40;36.92;;;28.20;;
60665;SDS011;59128;44.642;21.188;2023-04-01T19:58:32;34.88;;;26.40;;
60665;SDS011;59128;44.642;21.188;2023-04-01T20:00:57;38.63;;;27.30;;
60665;SDS011;59128;44.642;21.188;2023-04-01T20:03:45;33.67;;;25.02;;
60665;SDS011;59128;44.642;21.188;2023-04-01T20:06:16;31.83;;;24.03;;
60665;SDS011;59128;44.642;21.188;2023-04-01T20:19:13;31.33;;;23.15;;
60665;SDS011;59128;44.642;21.188;2023-04-01T20:26:38;28.42;;;21.23;;
60665;SDS011;59128;44.642;21.188;2023-04-01T20:31:58;39.63;;;29.00;;
60665;SDS011;59128;44.642;21.188;2023-04-01T20:34:39;31.87;;;24.77;;
60665;SDS011;59128;44.642;21.188;2023-04-01T20:37:16;33.10;;;24.55;;
60665;SDS011;59128;44.642;21.188;2023-04-01T20:42:34;41.03;;;30.08;;
60665;SDS011;59128;44.642;21.188;2023-04-01T20:45:13;50.00;;;36.70;;
60665;SDS011;59128;44.642;21.188;2023-04-01T20:50:28;53.33;;;36.67;;
60665;SDS011;59128;44.642;21.188;2023-04-01T20:58:35;51.58;;;36.40;;
60665;SDS011;59128;44.642;21.188;2023-04-01T21:01:13;46.00;;;32.55;;
60665;SDS011;59128;44.642;21.188;2023-04-01T21:30:15;47.22;;;38.38;;
60665;SDS011;59128;44.642;21.188;2023-04-01T21:35:21;35.80;;;28.48;;
60665;SDS011;59128;44.642;21.188;2023-04-01T21:43:48;33.20;;;26.73;;
60665;SDS011;59128;44.642;21.188;2023-04-01T22:07:14;52.17;;;38.33;;
60665;SDS011;59128;44.642;21.188;2023-04-01T22:09:48;47.30;;;35.90;;
60665;SDS011;59128;44.642;21.188;2023-04-01T22:12:20;60.45;;;42.03;;
60665;SDS011;59128;44.642;21.188;2023-04-01T22:14:57;60.08;;;41.83;;
60665;SDS011;59128;44.642;21.188;2023-04-01T22:20:14;51.47;;;38.70;;
60665;SDS011;59128;44.642;21.188;2023-04-01T22:23:00;44.42;;;34.92;;
60665;SDS011;59128;44.642;21.188;2023-04-01T22:28:25;44.22;;;35.03;;
60665;SDS011;59128;44.642;21.188;2023-04-01T22:30:55;47.10;;;36.65;;
60665;SDS011;59128;44.642;21.188;2023-04-01T22:35:58;56.83;;;42.40;;
60665;SDS011;59128;44.642;21.188;2023-04-01T22:43:24;86.93;;;63.72;;
60665;SDS011;59128;44.642;21.188;2023-04-01T22:53:52;55.25;;;41.75;;
60665;SDS011;59128;44.642;21.188;2023-04-01T22:56:33;48.63;;;37.20;;
60665;SDS011;59128;44.642;21.188;2023-04-01T23:01:47;43.58;;;34.08;;
60665;SDS011;59128;44.642;21.188;2023-04-01T23:04:15;46.15;;;34.55;;
60665;SDS011;59128;44.642;21.188;2023-04-01T23:06:48;42.78;;;33.50;;
60665;SDS011;59128;44.642;21.188;2023-04-01T23:09:25;40.08;;;31.92;;
60665;SDS011;59128;44.642;21.188;2023-04-01T23:11:57;41.97;;;33.03;;
60665;SDS011;59128;44.642;21.188;2023-04-01T23:14:32;37.67;;;31.17;;
60665;SDS011;59128;44.642;21.188;2023-04-01T23:24:50;42.13;;;31.95;;
60665;SDS011;59128;44.642;21.188;2023-04-01T23:27:20;43.78;;;32.95;;
60665;SDS011;59128;44.642;21.188;2023-04-01T23:29:47;49.22;;;34.22;;
60665;SDS011;59128;44.642;21.188;2023-04-01T23:32:14;65.80;;;42.35;;
60665;SDS011;59128;44.642;21.188;2023-04-01T23:34:46;67.15;;;44.10;;
60665;SDS011;59128;44.642;21.188;2023-04-01T23:37:13;76.60;;;51.88;;
60665;SDS011;59128;44.642;21.188;2023-04-01T23:39:59;60.07;;;43.00;;
60665;SDS011;59128;44.642;21.188;2023-04-01T23:44:56;60.50;;;42.75;;
60665;SDS011;59128;44.642;21.188;2023-04-01T23:47:23;44.03;;;32.95;;
60665;SDS011;59128;44.642;21.188;2023-04-01T23:49:54;55.65;;;38.75;;
60665;SDS011;59128;44.642;21.188;2023-04-01T23:52:29;69.50;;;46.30;;
60665;SDS011;59128;44.642;21.188;2023-04-01T23:57:27;38.40;;;30.90;;
